sensor_id;sensor_type;location;lat;lon;timestamp;pressure;altitude;pressure_sealevel;temperature;humidity
65880;BME280;52661;51.364;6.054;2023-04-04T00:00:53;102538.03;;;4.03;89.53
65880;BME280;52661;51.364;6.054;2023-04-04T00:03:19;102538.44;;;3.82;91.16
65880;BME280;52661;51.364;6.054;2023-04-04T00:05:45;102531.75;;;3.66;92.14
65880;BME280;52661;51.364;6.054;2023-04-04T00:08:10;102530.31;;;3.41;91.75
65880;BME280;52661;51.364;6.054;2023-04-04T00:10:35;102535.84;;;3.18;93.81
65880;BME280;52661;51.364;6.054;2023-04-04T00:13:01;102530.28;;;3.14;94.35
65880;BME280;52661;51.364;6.054;2023-04-04T00:15:27;102533.16;;;3.18;93.28
65880;BME280;52661;51.364;6.054;2023-04-04T00:17:52;102532.22;;;3.09;93.45
65880;BME280;52661;51.364;6.054;2023-04-04T00:20:17;102527.16;;;3.07;93.46
65880;BME280;52661;51.364;6.054;2023-04-04T00:22:43;102527.50;;;3.19;93.90
65880;BME280;52661;51.364;6.054;2023-04-04T00:25:09;102539.91;;;3.15;94.49
65880;BME280;52661;51.364;6.054;2023-04-04T00:27:35;102539.66;;;2.98;95.14
65880;BME280;52661;51.364;6.054;2023-04-04T00:30:00;102536.31;;;3.06;95.77
65880;BME280;52661;51.364;6.054;2023-04-04T00:32:25;102536.78;;;3.08;96.69
65880;BME280;52661;51.364;6.054;2023-04-04T00:34:52;102539.56;;;3.03;96.47
65880;BME280;52661;51.364;6.054;2023-04-04T00:37:17;102536.31;;;3.06;97.55
65880;BME280;52661;51.364;6.054;2023-04-04T00:39:43;102536.97;;;2.98;98.34
65880;BME280;52661;51.364;6.054;2023-04-04T00:42:08;102535.00;;;3.04;97.13
65880;BME280;52661;51.364;6.054;2023-04-04T00:44:34;102533.19;;;2.99;96.16
65880;BME280;52661;51.364;6.054;2023-04-04T00:47:00;102540.38;;;3.04;95.52
65880;BME280;52661;51.364;6.054;2023-04-04T00:49:26;102539.47;;;3.08;95.32
65880;BME280;52661;51.364;6.054;2023-04-04T00:51:51;102536.78;;;3.08;95.14
65880;BME280;52661;51.364;6.054;2023-04-04T00:54:17;102541.06;;;3.09;95.64
65880;BME280;52661;51.364;6.054;2023-04-04T00:56:42;102531.81;;;3.02;96.77
65880;BME280;52661;51.364;6.054;2023-04-04T00:59:07;102537.75;;;2.98;96.00
65880;BME280;52661;51.364;6.054;2023-04-04T01:01:34;102538.56;;;2.99;96.67
65880;BME280;52661;51.364;6.054;2023-04-04T01:04:00;102534.22;;;3.03;95.12
65880;BME280;52661;51.364;6.054;2023-04-04T01:06:27;102534.13;;;3.08;94.95
65880;BME280;52661;51.364;6.054;2023-04-04T01:08:54;102540.94;;;3.01;94.75
65880;BME280;52661;51.364;6.054;2023-04-04T01:11:20;102531.94;;;3.10;93.50
65880;BME280;52661;51.364;6.054;2023-04-04T01:13:46;102531.16;;;3.10;94.52
65880;BME280;52661;51.364;6.054;2023-04-04T01:16:12;102527.16;;;3.07;94.83
65880;BME280;52661;51.364;6.054;2023-04-04T01:18:39;102528.44;;;2.96;94.62
65880;BME280;52661;51.364;6.054;2023-04-04T01:21:10;102534.38;;;2.93;93.91
65880;BME280;52661;51.364;6.054;2023-04-04T01:23:58;102525.75;;;2.96;91.81
65880;BME280;52661;51.364;6.054;2023-04-04T01:26:23;102526.88;;;2.90;91.74
65880;BME280;52661;51.364;6.054;2023-04-04T01:28:51;102527.09;;;2.93;90.75
65880;BME280;52661;51.364;6.054;2023-04-04T01:31:20;102532.78;;;2.92;90.85
65880;BME280;52661;51.364;6.054;2023-04-04T01:33:53;102526.78;;;2.81;91.17
65880;BME280;52661;51.364;6.054;2023-04-04T01:36:33;102537.28;;;2.78;91.38
65880;BME280;52661;51.364;6.054;2023-04-04T01:39:09;102527.00;;;2.85;91.95
65880;BME280;52661;51.364;6.054;2023-04-04T01:41:39;102525.25;;;2.75;93.40
65880;BME280;52661;51.364;6.054;2023-04-04T01:44:08;102524.81;;;2.68;93.93
65880;BME280;52661;51.364;6.054;2023-04-04T01:46:35;102518.31;;;2.74;93.78
65880;BME280;52661;51.364;6.054;2023-04-04T01:49:01;102528.50;;;2.91;94.29
65880;BME280;52661;51.364;6.054;2023-04-04T01:51:26;102511.53;;;2.95;93.24
65880;BME280;52661;51.364;6.054;2023-04-04T01:53:53;102515.72;;;3.02;92.69
65880;BME280;52661;51.364;6.054;2023-04-04T01:56:18;102508.88;;;3.09;91.39
65880;BME280;52661;51.364;6.054;2023-04-04T01:58:44;102510.66;;;3.00;92.15
65880;BME280;52661;51.364;6.054;2023-04-04T02:01:09;102509.16;;;3.08;91.78
65880;BME280;52661;51.364;6.054;2023-04-04T02:03:34;102509.13;;;2.94;92.02
65880;BME280;52661;51.364;6.054;2023-04-04T02:05:59;102498.50;;;2.89;92.91
65880;BME280;52661;51.364;6.054;2023-04-04T02:08:25;102504.53;;;2.81;92.93
65880;BME280;52661;51.364;6.054;2023-04-04T02:10:50;102500.47;;;2.65;94.87
65880;BME280;52661;51.364;6.054;2023-04-04T02:13:16;102506.34;;;2.67;95.94
65880;BME280;52661;51.364;6.054;2023-04-04T02:15:42;102510.69;;;2.81;95.46
65880;BME280;52661;51.364;6.054;2023-04-04T02:18:07;102510.53;;;2.73;95.32
65880;BME280;52661;51.364;6.054;2023-04-04T02:20:33;102505.34;;;2.63;94.97
65880;BME280;52661;51.364;6.054;2023-04-04T02:22:58;102500.63;;;2.55;94.67
65880;BME280;52661;51.364;6.054;2023-04-04T02:25:24;102504.09;;;2.36;96.11
65880;BME280;52661;51.364;6.054;2023-04-04T02:27:49;102505.47;;;2.34;96.82
65880;BME280;52661;51.364;6.054;2023-04-04T02:30:15;102509.25;;;2.33;97.55
65880;BME280;52661;51.364;6.054;2023-04-04T02:32:40;102508.50;;;2.46;96.84
65880;BME280;52661;51.364;6.054;2023-04-04T02:35:06;102512.13;;;2.36;97.50
65880;BME280;52661;51.364;6.054;2023-04-04T02:37:32;102513.66;;;2.42;97.38
65880;BME280;52661;51.364;6.054;2023-04-04T02:39:57;102512.38;;;2.59;97.82
65880;BME280;52661;51.364;6.054;2023-04-04T02:42:23;102505.28;;;2.49;97.47
65880;BME280;52661;51.364;6.054;2023-04-04T02:44:48;102511.50;;;2.44;98.42
65880;BME280;52661;51.364;6.054;2023-04-04T02:47:13;102509.25;;;2.52;98.49
65880;BME280;52661;51.364;6.054;2023-04-04T02:49:38;102499.25;;;2.38;99.39
65880;BME280;52661;51.364;6.054;2023-04-04T02:52:04;102508.06;;;2.39;99.04
65880;BME280;52661;51.364;6.054;2023-04-04T02:54:29;102501.34;;;2.23;99.39
65880;BME280;52661;51.364;6.054;2023-04-04T02:56:54;102497.22;;;2.30;98.79
65880;BME280;52661;51.364;6.054;2023-04-04T02:59:20;102495.47;;;2.21;99.26
65880;BME280;52661;51.364;6.054;2023-04-04T03:01:45;102493.59;;;2.40;98.19
65880;BME280;52661;51.364;6.054;2023-04-04T03:04:11;102495.84;;;2.52;97.76
65880;BME280;52661;51.364;6.054;2023-04-04T03:06:38;102497.72;;;2.51;97.08
65880;BME280;52661;51.364;6.054;2023-04-04T03:09:04;102499.53;;;2.56;97.00
65880;BME280;52661;51.364;6.054;2023-04-04T03:11:30;102502.22;;;2.37;97.17
65880;BME280;52661;51.364;6.054;2023-04-04T03:13:55;102498.66;;;2.23;97.80
65880;BME280;52661;51.364;6.054;2023-04-04T03:16:21;102500.31;;;2.19;97.73
65880;BME280;52661;51.364;6.054;2023-04-04T03:18:46;102499.38;;;2.10;98.29
65880;BME280;52661;51.364;6.054;2023-04-04T03:21:12;102497.78;;;2.09;98.49
65880;BME280;52661;51.364;6.054;2023-04-04T03:23:37;102500.06;;;1.96;99.10
65880;BME280;52661;51.364;6.054;2023-04-04T03:26:03;102499.72;;;2.03;98.92
65880;BME280;52661;51.364;6.054;2023-04-04T03:28:28;102497.75;;;1.90;99.22
65880;BME280;52661;51.364;6.054;2023-04-04T03:30:54;102502.13;;;2.05;98.86
65880;BME280;52661;51.364;6.054;2023-04-04T03:33:20;102501.41;;;2.18;98.68
65880;BME280;52661;51.364;6.054;2023-04-04T03:35:46;102500.16;;;2.10;99.35
65880;BME280;52661;51.364;6.054;2023-04-04T03:38:12;102498.16;;;2.21;99.58
65880;BME280;52661;51.364;6.054;2023-04-04T03:40:37;102499.66;;;2.08;99.67
65880;BME280;52661;51.364;6.054;2023-04-04T03:43:06;102490.38;;;2.01;99.41
65880;BME280;52661;51.364;6.054;2023-04-04T03:45:33;102490.59;;;2.04;99.41
65880;BME280;52661;51.364;6.054;2023-04-04T03:47:59;102484.88;;;2.11;99.45
65880;BME280;52661;51.364;6.054;2023-04-04T03:50:25;102492.00;;;2.20;99.29
65880;BME280;52661;51.364;6.054;2023-04-04T03:52:50;102489.47;;;2.29;98.27
65880;BME280;52661;51.364;6.054;2023-04-04T03:55:15;102493.72;;;2.11;99.03
65880;BME280;52661;51.364;6.054;2023-04-04T03:57:41;102494.34;;;2.03;99.07
65880;BME280;52661;51.364;6.054;2023-04-04T04:00:07;102495.31;;;2.12;98.40
65880;BME280;52661;51.364;6.054;2023-04-04T04:02:32;102494.53;;;2.12;98.02
65880;BME280;52661;51.364;6.054;2023-04-04T04:04:57;102495.25;;;2.17;97.43
65880;BME280;52661;51.364;6.054;2023-04-04T04:07:23;102489.56;;;2.00;98.83
65880;BME280;52661;51.364;6.054;2023-04-04T04:09:48;102489.81;;;2.04;98.78
65880;BME280;52661;51.364;6.054;2023-04-04T04:12:14;102485.44;;;1.89;97.70
65880;BME280;52661;51.364;6.054;2023-04-04T04:14:39;102484.41;;;1.85;97.92
65880;BME280;52661;51.364;6.054;2023-04-04T04:17:04;102480.47;;;1.77;99.29
65880;BME280;52661;51.364;6.054;2023-04-04T04:19:30;102485.72;;;1.87;99.04
65880;BME280;52661;51.364;6.054;2023-04-04T04:21:55;102487.03;;;1.90;98.51
65880;BME280;52661;51.364;6.054;2023-04-04T04:24:20;102476.91;;;1.87;97.75
65880;BME280;52661;51.364;6.054;2023-04-04T04:26:46;102482.09;;;1.78;98.29
65880;BME280;52661;51.364;6.054;2023-04-04T04:29:11;102481.94;;;1.88;98.06
65880;BME280;52661;51.364;6.054;2023-04-04T04:31:37;102480.72;;;1.81;98.99
65880;BME280;52661;51.364;6.054;2023-04-04T04:34:06;102467.75;;;1.69;98.36
65880;BME280;52661;51.364;6.054;2023-04-04T04:36:35;102474.53;;;1.62;97.96
65880;BME280;52661;51.364;6.054;2023-04-04T04:39:00;102467.53;;;1.66;98.84
65880;BME280;52661;51.364;6.054;2023-04-04T04:41:26;102467.00;;;1.64;98.68
65880;BME280;52661;51.364;6.054;2023-04-04T04:43:53;102476.13;;;1.63;99.26
65880;BME280;52661;51.364;6.054;2023-04-04T04:46:19;102466.41;;;1.67;100.00
65880;BME280;52661;51.364;6.054;2023-04-04T04:48:44;102470.47;;;1.88;99.81
65880;BME280;52661;51.364;6.054;2023-04-04T04:51:09;102468.88;;;1.63;100.00
65880;BME280;52661;51.364;6.054;2023-04-04T04:53:34;102472.34;;;1.64;100.00
65880;BME280;52661;51.364;6.054;2023-04-04T04:56:00;102475.44;;;1.76;100.00
65880;BME280;52661;51.364;6.054;2023-04-04T04:58:25;102477.56;;;1.74;99.89
65880;BME280;52661;51.364;6.054;2023-04-04T05:00:54;102487.22;;;1.75;100.00
65880;BME280;52661;51.364;6.054;2023-04-04T05:03:23;102480.50;;;1.54;100.00
65880;BME280;52661;51.364;6.054;2023-04-04T05:05:49;102482.66;;;1.52;100.00
65880;BME280;52661;51.364;6.054;2023-04-04T05:08:14;102490.31;;;1.34;100.00
65880;BME280;52661;51.364;6.054;2023-04-04T05:10:40;102482.25;;;1.39;100.00
65880;BME280;52661;51.364;6.054;2023-04-04T05:13:05;102486.91;;;1.53;100.00
65880;BME280;52661;51.364;6.054;2023-04-04T05:15:31;102489.13;;;1.45;99.97
65880;BME280;52661;51.364;6.054;2023-04-04T05:17:56;102488.41;;;1.40;99.58
65880;BME280;52661;51.364;6.054;2023-04-04T05:20:22;102485.84;;;1.30;99.41
65880;BME280;52661;51.364;6.054;2023-04-04T05:22:47;102494.56;;;1.40;98.93
65880;BME280;52661;51.364;6.054;2023-04-04T05:25:13;102493.53;;;1.60;99.24
65880;BME280;52661;51.364;6.054;2023-04-04T05:27:39;102499.97;;;1.59;100.00
65880;BME280;52661;51.364;6.054;2023-04-04T05:30:05;102506.22;;;1.49;100.00
65880;BME280;52661;51.364;6.054;2023-04-04T05:32:32;102503.16;;;1.61;100.00
65880;BME280;52661;51.364;6.054;2023-04-04T05:34:57;102495.63;;;1.63;100.00
65880;BME280;52661;51.364;6.054;2023-04-04T05:37:23;102498.59;;;1.62;100.00
65880;BME280;52661;51.364;6.054;2023-04-04T05:39:48;102502.31;;;1.66;100.00
65880;BME280;52661;51.364;6.054;2023-04-04T05:42:13;102503.03;;;1.71;100.00
65880;BME280;52661;51.364;6.054;2023-04-04T05:44:39;102505.38;;;1.78;100.00
65880;BME280;52661;51.364;6.054;2023-04-04T05:47:04;102504.88;;;1.76;100.00
65880;BME280;52661;51.364;6.054;2023-04-04T05:49:30;102501.34;;;1.80;100.00
65880;BME280;52661;51.364;6.054;2023-04-04T05:51:55;102510.94;;;1.81;100.00
65880;BME280;52661;51.364;6.054;2023-04-04T05:54:21;102510.50;;;1.74;100.00
65880;BME280;52661;51.364;6.054;2023-04-04T05:56:46;102515.00;;;1.79;100.00
65880;BME280;52661;51.364;6.054;2023-04-04T05:59:12;102511.06;;;1.71;100.00
65880;BME280;52661;51.364;6.054;2023-04-04T06:01:37;102513.75;;;1.71;100.00
65880;BME280;52661;51.364;6.054;2023-04-04T06:04:02;102513.41;;;1.78;100.00
65880;BME280;52661;51.364;6.054;2023-04-04T06:06:28;102513.84;;;1.85;100.00
65880;BME280;52661;51.364;6.054;2023-04-04T06:08:53;102519.66;;;1.92;100.00
65880;BME280;52661;51.364;6.054;2023-04-04T06:11:19;102521.34;;;1.88;100.00
65880;BME280;52661;51.364;6.054;2023-04-04T06:13:46;102525.00;;;1.92;100.00
65880;BME280;52661;51.364;6.054;2023-04-04T06:16:11;102528.16;;;1.99;100.00
65880;BME280;52661;51.364;6.054;2023-04-04T06:18:37;102538.00;;;2.04;100.00
65880;BME280;52661;51.364;6.054;2023-04-04T06:21:02;102539.59;;;2.05;100.00
65880;BME280;52661;51.364;6.054;2023-04-04T06:23:27;102541.31;;;2.19;100.00
65880;BME280;52661;51.364;6.054;2023-04-04T06:25:53;102541.31;;;2.19;100.00
65880;BME280;52661;51.364;6.054;2023-04-04T06:28:18;102551.16;;;2.24;100.00
65880;BME280;52661;51.364;6.054;2023-04-04T06:30:43;102541.47;;;2.28;100.00
65880;BME280;52661;51.364;6.054;2023-04-04T06:33:09;102546.53;;;2.29;100.00
65880;BME280;52661;51.364;6.054;2023-04-04T06:35:35;102539.69;;;2.42;100.00
65880;BME280;52661;51.364;6.054;2023-04-04T06:38:00;102552.19;;;2.46;100.00
65880;BME280;52661;51.364;6.054;2023-04-04T06:40:28;102559.38;;;2.51;100.00
65880;BME280;52661;51.364;6.054;2023-04-04T06:42:53;102558.78;;;2.54;100.00
65880;BME280;52661;51.364;6.054;2023-04-04T06:45:26;102560.97;;;2.52;100.00
65880;BME280;52661;51.364;6.054;2023-04-04T06:47:53;102563.56;;;2.57;100.00
65880;BME280;52661;51.364;6.054;2023-04-04T06:50:19;102569.16;;;2.61;100.00
65880;BME280;52661;51.364;6.054;2023-04-04T06:52:44;102565.38;;;2.62;100.00
65880;BME280;52661;51.364;6.054;2023-04-04T06:55:10;102565.13;;;2.63;100.00
65880;BME280;52661;51.364;6.054;2023-04-04T06:57:35;102562.13;;;2.65;100.00
65880;BME280;52661;51.364;6.054;2023-04-04T07:00:02;102564.00;;;2.64;100.00
65880;BME280;52661;51.364;6.054;2023-04-04T07:02:28;102565.59;;;2.65;100.00
65880;BME280;52661;51.364;6.054;2023-04-04T07:04:53;102565.97;;;2.77;100.00
65880;BME280;52661;51.364;6.054;2023-04-04T07:07:19;102561.25;;;2.88;100.00
65880;BME280;52661;51.364;6.054;2023-04-04T07:09:44;102550.09;;;3.00;100.00
65880;BME280;52661;51.364;6.054;2023-04-04T07:12:10;102555.66;;;3.03;100.00
65880;BME280;52661;51.364;6.054;2023-04-04T07:14:35;102546.16;;;3.11;100.00
65880;BME280;52661;51.364;6.054;2023-04-04T07:17:01;102547.88;;;3.20;100.00
65880;BME280;52661;51.364;6.054;2023-04-04T07:19:26;102551.03;;;3.22;100.00
65880;BME280;52661;51.364;6.054;2023-04-04T07:21:54;102540.84;;;3.24;100.00
65880;BME280;52661;51.364;6.054;2023-04-04T07:24:19;102548.78;;;3.29;100.00
65880;BME280;52661;51.364;6.054;2023-04-04T07:26:45;102551.19;;;3.31;100.00
65880;BME280;52661;51.364;6.054;2023-04-04T07:29:11;102553.78;;;3.36;100.00
65880;BME280;52661;51.364;6.054;2023-04-04T07:31:36;102545.25;;;3.47;100.00
65880;BME280;52661;51.364;6.054;2023-04-04T07:34:02;102545.25;;;3.47;100.00
65880;BME280;52661;51.364;6.054;2023-04-04T07:36:27;102552.41;;;3.52;100.00
65880;BME280;52661;51.364;6.054;2023-04-04T07:38:53;102558.72;;;3.61;100.00
65880;BME280;52661;51.364;6.054;2023-04-04T07:41:20;102555.63;;;3.68;100.00
65880;BME280;52661;51.364;6.054;2023-04-04T07:43:45;102556.25;;;3.78;100.00
65880;BME280;52661;51.364;6.054;2023-04-04T07:46:11;102551.75;;;3.87;100.00
65880;BME280;52661;51.364;6.054;2023-04-04T07:48:36;102542.00;;;3.91;98.24
65880;BME280;52661;51.364;6.054;2023-04-04T07:51:02;102541.31;;;4.00;97.49
65880;BME280;52661;51.364;6.054;2023-04-04T07:53:31;102547.16;;;4.02;93.74
65880;BME280;52661;51.364;6.054;2023-04-04T07:55:56;102550.09;;;4.05;88.43
65880;BME280;52661;51.364;6.054;2023-04-04T07:58:22;102551.84;;;4.10;90.78
65880;BME280;52661;51.364;6.054;2023-04-04T08:00:47;102556.44;;;4.09;88.75
65880;BME280;52661;51.364;6.054;2023-04-04T08:03:12;102547.19;;;4.15;86.01
65880;BME280;52661;51.364;6.054;2023-04-04T08:05:39;102548.25;;;4.28;93.67
65880;BME280;52661;51.364;6.054;2023-04-04T08:08:05;102544.25;;;4.39;89.51
65880;BME280;52661;51.364;6.054;2023-04-04T08:10:31;102550.63;;;4.43;89.90
65880;BME280;52661;51.364;6.054;2023-04-04T08:12:56;102548.03;;;4.52;93.80
65880;BME280;52661;51.364;6.054;2023-04-04T08:15:22;102550.28;;;4.58;91.81
65880;BME280;52661;51.364;6.054;2023-04-04T08:17:47;102549.97;;;4.60;89.18
65880;BME280;52661;51.364;6.054;2023-04-04T08:20:14;102547.56;;;4.72;90.69
65880;BME280;52661;51.364;6.054;2023-04-04T08:22:40;102554.13;;;4.79;86.62
65880;BME280;52661;51.364;6.054;2023-04-04T08:25:06;102552.41;;;4.83;85.64
65880;BME280;52661;51.364;6.054;2023-04-04T08:27:31;102561.75;;;4.86;83.93
65880;BME280;52661;51.364;6.054;2023-04-04T08:29:57;102561.50;;;4.96;83.97
65880;BME280;52661;51.364;6.054;2023-04-04T08:32:22;102560.00;;;5.04;82.39
65880;BME280;52661;51.364;6.054;2023-04-04T08:34:48;102555.94;;;5.15;88.18
65880;BME280;52661;51.364;6.054;2023-04-04T08:37:13;102555.16;;;5.14;82.12
65880;BME280;52661;51.364;6.054;2023-04-04T08:39:39;102555.53;;;5.21;85.89
65880;BME280;52661;51.364;6.054;2023-04-04T08:42:05;102558.16;;;5.35;84.30
65880;BME280;52661;51.364;6.054;2023-04-04T08:44:32;102555.81;;;5.42;82.35
65880;BME280;52661;51.364;6.054;2023-04-04T08:46:59;102552.94;;;5.38;81.21
65880;BME280;52661;51.364;6.054;2023-04-04T08:49:26;102546.50;;;5.48;82.04
65880;BME280;52661;51.364;6.054;2023-04-04T08:51:55;102548.56;;;5.51;80.37
65880;BME280;52661;51.364;6.054;2023-04-04T08:54:20;102547.03;;;5.59;81.77
65880;BME280;52661;51.364;6.054;2023-04-04T08:56:47;102548.44;;;5.56;76.33
65880;BME280;52661;51.364;6.054;2023-04-04T08:59:12;102537.88;;;5.68;79.46
65880;BME280;52661;51.364;6.054;2023-04-04T09:01:39;102526.97;;;5.73;77.72
65880;BME280;52661;51.364;6.054;2023-04-04T09:04:06;102536.31;;;5.67;77.74
65880;BME280;52661;51.364;6.054;2023-04-04T09:06:33;102551.84;;;5.79;77.08
65880;BME280;52661;51.364;6.054;2023-04-04T09:08:58;102546.78;;;5.77;74.80
65880;BME280;52661;51.364;6.054;2023-04-04T09:11:27;102551.25;;;5.82;75.16
65880;BME280;52661;51.364;6.054;2023-04-04T09:13:56;102549.91;;;6.02;81.92
65880;BME280;52661;51.364;6.054;2023-04-04T09:16:22;102542.34;;;6.12;82.35
65880;BME280;52661;51.364;6.054;2023-04-04T09:18:48;102536.16;;;6.12;81.28
65880;BME280;52661;51.364;6.054;2023-04-04T09:21:13;102538.34;;;6.01;78.01
65880;BME280;52661;51.364;6.054;2023-04-04T09:23:39;102539.97;;;6.11;80.72
65880;BME280;52661;51.364;6.054;2023-04-04T09:26:04;102524.75;;;6.15;79.13
65880;BME280;52661;51.364;6.054;2023-04-04T09:28:31;102528.41;;;6.27;81.20
65880;BME280;52661;51.364;6.054;2023-04-04T09:30:59;102532.84;;;6.23;80.10
65880;BME280;52661;51.364;6.054;2023-04-04T09:33:24;102532.25;;;6.35;80.42
65880;BME280;52661;51.364;6.054;2023-04-04T09:35:53;102529.56;;;6.43;82.18
65880;BME280;52661;51.364;6.054;2023-04-04T09:38:21;102533.03;;;6.35;79.25
65880;BME280;52661;51.364;6.054;2023-04-04T09:40:47;102540.81;;;6.46;80.73
65880;BME280;52661;51.364;6.054;2023-04-04T09:43:13;102527.78;;;6.48;78.69
65880;BME280;52661;51.364;6.054;2023-04-04T09:45:40;102525.63;;;6.58;78.63
65880;BME280;52661;51.364;6.054;2023-04-04T09:48:06;102528.44;;;6.70;80.00
65880;BME280;52661;51.364;6.054;2023-04-04T09:50:33;102528.78;;;6.69;76.16
65880;BME280;52661;51.364;6.054;2023-04-04T09:52:59;102521.47;;;6.61;76.02
65880;BME280;52661;51.364;6.054;2023-04-04T09:55:35;102515.13;;;6.74;78.34
65880;BME280;52661;51.364;6.054;2023-04-04T09:58:12;102518.13;;;6.89;79.17
65880;BME280;52661;51.364;6.054;2023-04-04T10:00:41;102524.97;;;6.87;73.06
65880;BME280;52661;51.364;6.054;2023-04-04T10:03:16;102510.81;;;6.99;77.73
65880;BME280;52661;51.364;6.054;2023-04-04T10:05:43;102514.63;;;6.98;76.42
65880;BME280;52661;51.364;6.054;2023-04-04T10:08:17;102512.41;;;7.00;80.17
65880;BME280;52661;51.364;6.054;2023-04-04T10:10:54;102516.34;;;7.19;74.91
65880;BME280;52661;51.364;6.054;2023-04-04T10:13:24;102526.50;;;7.22;77.20
65880;BME280;52661;51.364;6.054;2023-04-04T10:15:52;102525.53;;;7.27;77.38
65880;BME280;52661;51.364;6.054;2023-04-04T10:18:28;102519.19;;;7.23;75.40
65880;BME280;52661;51.364;6.054;2023-04-04T10:20:56;102518.50;;;7.34;76.18
65880;BME280;52661;51.364;6.054;2023-04-04T10:23:22;102522.94;;;7.39;78.15
65880;BME280;52661;51.364;6.054;2023-04-04T10:25:50;102510.16;;;7.57;79.96
65880;BME280;52661;51.364;6.054;2023-04-04T10:28:16;102509.66;;;7.63;79.62
65880;BME280;52661;51.364;6.054;2023-04-04T10:30:54;102508.25;;;7.66;82.87
65880;BME280;52661;51.364;6.054;2023-04-04T10:33:40;102504.63;;;7.53;76.94
65880;BME280;52661;51.364;6.054;2023-04-04T10:36:10;102500.34;;;7.52;77.50
65880;BME280;52661;51.364;6.054;2023-04-04T10:38:47;102501.91;;;7.53;74.30
65880;BME280;52661;51.364;6.054;2023-04-04T10:41:15;102498.50;;;7.35;69.23
65880;BME280;52661;51.364;6.054;2023-04-04T10:43:44;102498.84;;;7.25;70.25
65880;BME280;52661;51.364;6.054;2023-04-04T10:46:14;102501.91;;;7.62;72.14
65880;BME280;52661;51.364;6.054;2023-04-04T10:48:42;102500.03;;;7.83;76.00
65880;BME280;52661;51.364;6.054;2023-04-04T10:51:10;102501.16;;;7.82;75.43
65880;BME280;52661;51.364;6.054;2023-04-04T10:53:37;102504.19;;;7.80;68.05
65880;BME280;52661;51.364;6.054;2023-04-04T10:56:03;102485.94;;;7.77;71.84
65880;BME280;52661;51.364;6.054;2023-04-04T10:58:29;102483.25;;;7.69;68.07
65880;BME280;52661;51.364;6.054;2023-04-04T11:00:55;102481.06;;;7.62;72.20
65880;BME280;52661;51.364;6.054;2023-04-04T11:03:21;102480.84;;;7.76;69.76
65880;BME280;52661;51.364;6.054;2023-04-04T11:05:47;102484.91;;;7.90;73.22
65880;BME280;52661;51.364;6.054;2023-04-04T11:08:24;102474.31;;;8.06;76.73
65880;BME280;52661;51.364;6.054;2023-04-04T11:10:52;102478.25;;;8.09;76.02
65880;BME280;52661;51.364;6.054;2023-04-04T11:13:57;102472.69;;;8.34;77.74
65880;BME280;52661;51.364;6.054;2023-04-04T11:16:12;102471.59;;;8.35;67.92
65880;BME280;52661;51.364;6.054;2023-04-04T11:21:07;102471.84;;;8.43;73.59
65880;BME280;52661;51.364;6.054;2023-04-04T11:26:34;102455.06;;;8.49;67.63
65880;BME280;52661;51.364;6.054;2023-04-04T11:29:01;102448.00;;;8.36;67.09
65880;BME280;52661;51.364;6.054;2023-04-04T11:31:32;102438.63;;;8.54;70.35
65880;BME280;52661;51.364;6.054;2023-04-04T11:39:27;102448.00;;;8.57;61.45
65880;BME280;52661;51.364;6.054;2023-04-04T11:44:28;102437.31;;;9.05;70.60
65880;BME280;52661;51.364;6.054;2023-04-04T11:47:16;102440.00;;;8.93;63.04
65880;BME280;52661;51.364;6.054;2023-04-04T11:49:45;102446.03;;;9.11;66.43
65880;BME280;52661;51.364;6.054;2023-04-04T11:52:12;102436.78;;;9.24;68.56
65880;BME280;52661;51.364;6.054;2023-04-04T11:54:39;102436.69;;;9.32;65.76
65880;BME280;52661;51.364;6.054;2023-04-04T11:57:05;102430.34;;;9.40;63.59
65880;BME280;52661;51.364;6.054;2023-04-04T11:59:31;102433.41;;;9.51;66.88
65880;BME280;52661;51.364;6.054;2023-04-04T12:01:56;102423.69;;;9.50;65.51
65880;BME280;52661;51.364;6.054;2023-04-04T12:04:24;102425.72;;;9.53;64.15
65880;BME280;52661;51.364;6.054;2023-04-04T12:06:50;102428.00;;;9.51;58.92
65880;BME280;52661;51.364;6.054;2023-04-04T12:09:16;102425.28;;;9.51;65.34
65880;BME280;52661;51.364;6.054;2023-04-04T12:11:44;102420.63;;;9.64;65.12
65880;BME280;52661;51.364;6.054;2023-04-04T12:14:23;102421.06;;;9.66;61.04
65880;BME280;52661;51.364;6.054;2023-04-04T12:16:50;102418.25;;;9.86;66.39
65880;BME280;52661;51.364;6.054;2023-04-04T12:19:17;102419.69;;;9.96;63.16
65880;BME280;52661;51.364;6.054;2023-04-04T12:21:45;102419.34;;;9.98;60.82
65880;BME280;52661;51.364;6.054;2023-04-04T12:24:11;102426.91;;;9.92;59.08
65880;BME280;52661;51.364;6.054;2023-04-04T12:26:38;102423.72;;;10.02;61.81
65880;BME280;52661;51.364;6.054;2023-04-04T12:29:05;102412.81;;;9.86;55.69
65880;BME280;52661;51.364;6.054;2023-04-04T12:31:31;102411.53;;;9.96;59.84
65880;BME280;52661;51.364;6.054;2023-04-04T12:33:58;102409.25;;;10.10;58.37
65880;BME280;52661;51.364;6.054;2023-04-04T12:36:36;102408.94;;;10.00;56.71
65880;BME280;52661;51.364;6.054;2023-04-04T12:39:08;102400.31;;;10.22;59.06
65880;BME280;52661;51.364;6.054;2023-04-04T12:41:34;102405.03;;;10.25;57.18
65880;BME280;52661;51.364;6.054;2023-04-04T12:44:05;102402.34;;;10.25;56.12
65880;BME280;52661;51.364;6.054;2023-04-04T12:46:36;102394.69;;;10.43;59.41
65880;BME280;52661;51.364;6.054;2023-04-04T12:49:09;102389.25;;;10.43;55.24
65880;BME280;52661;51.364;6.054;2023-04-04T12:51:36;102382.25;;;10.42;57.30
65880;BME280;52661;51.364;6.054;2023-04-04T12:54:06;102382.16;;;10.38;56.55
65880;BME280;52661;51.364;6.054;2023-04-04T12:56:33;102369.81;;;10.41;54.74
65880;BME280;52661;51.364;6.054;2023-04-04T12:59:02;102367.66;;;10.62;58.89
65880;BME280;52661;51.364;6.054;2023-04-04T13:01:32;102370.50;;;10.81;59.76
65880;BME280;52661;51.364;6.054;2023-04-04T13:04:01;102362.88;;;10.86;56.71
65880;BME280;52661;51.364;6.054;2023-04-04T13:06:29;102361.75;;;10.88;56.92
65880;BME280;52661;51.364;6.054;2023-04-04T13:08:55;102358.84;;;10.80;56.10